Time;durP1;ratioP1;P1;durP2;ratioP2;P2;SDS_P1;SDS_P2;PMS_P1;PMS_P2;Temp;Humidity;BMP_temperature;BMP_pressure;BME280_temperature;BME280_humidity;BME280_pressure;Samples;Min_cycle;Max_cycle;Signal;HPM_P1;HPM_P2
2022/04/11 00:03:39;;;;;;;5.70;0.82;;;5.90;99.90;;;;;;20762469;28;20497;-43
2022/04/11 00:13:40;;;;;;;1.55;0.45;;;6.00;99.90;;;;;;20768213;28;20436;-42
2022/04/11 00:23:42;;;;;;;2.05;0.95;;;5.80;99.90;;;;;;20778908;28;20493;-43
2022/04/11 00:33:44;;;;;;;7.13;0.85;;;5.80;99.90;;;;;;20772398;28;20416;-43
2022/04/11 00:43:45;;;;;;;2.55;1.13;;;5.80;99.90;;;;;;20776412;28;20136;-43
2022/04/11 00:53:47;;;;;;;2.53;0.85;;;5.70;99.90;;;;;;20754964;28;20516;-43
2022/04/11 01:03:49;;;;;;;1.83;1.00;;;5.80;99.90;;;;;;20773945;28;20037;-43
2022/04/11 01:13:50;;;;;;;1.00;0.47;;;5.70;99.90;;;;;;20774876;28;20037;-43
2022/04/11 01:23:51;;;;;;;3.13;0.90;;;5.70;99.90;;;;;;20779834;28;20034;-43
2022/04/11 01:33:53;;;;;;;3.22;1.58;;;5.60;99.90;;;;;;20785180;28;21480;-43
2022/04/11 01:43:54;;;;;;;3.70;1.08;;;5.50;99.90;;;;;;20785564;28;20439;-43
2022/04/11 01:53:55;;;;;;;3.00;1.20;;;5.40;99.90;;;;;;20785861;28;20083;-43
2022/04/11 02:03:56;;;;;;;3.28;1.40;;;5.30;99.90;;;;;;20779010;28;20037;-43
2022/04/11 02:13:59;;;;;;;4.65;1.50;;;5.20;99.90;;;;;;20783279;28;20409;-43
2022/04/11 02:24:00;;;;;;;3.45;1.55;;;5.10;99.90;;;;;;20783696;28;20129;-42
2022/04/11 02:34:01;;;;;;;2.80;1.17;;;5.10;99.90;;;;;;20780250;28;20134;-43
2022/04/11 02:44:02;;;;;;;2.10;1.30;;;5.00;99.90;;;;;;20776032;28;20044;-43
2022/04/11 02:54:07;;;;;;;6.32;2.03;;;5.00;99.90;;;;;;20778692;28;20042;-43
2022/04/11 03:04:08;;;;;;;3.30;1.77;;;4.90;99.90;;;;;;20787471;28;20046;-43
2022/04/11 03:14:10;;;;;;;3.35;1.60;;;5.00;99.90;;;;;;20792322;28;20049;-43
2022/04/11 03:24:11;;;;;;;3.70;1.70;;;4.90;99.90;;;;;;20774564;28;20565;-43
2022/04/11 03:34:13;;;;;;;3.88;1.85;;;4.80;99.90;;;;;;20754603;28;20054;-43
2022/04/11 03:44:14;;;;;;;3.95;2.10;;;4.90;99.90;;;;;;20706052;28;20540;-43
2022/04/11 03:54:15;;;;;;;4.28;1.80;;;4.80;99.90;;;;;;20706704;28;20076;-43
2022/04/11 04:04:16;;;;;;;3.13;1.95;;;4.80;99.90;;;;;;20700273;28;20038;-43
2022/04/11 04:14:17;;;;;;;3.45;2.00;;;4.80;99.90;;;;;;20693050;28;20046;-43
2022/04/11 04:24:22;;;;;;;4.88;2.47;;;4.80;99.90;;;;;;20698703;28;20042;-43
2022/04/11 04:34:25;;;;;;;5.05;2.30;;;4.90;99.90;;;;;;20717229;28;20401;-43
2022/04/11 04:44:26;;;;;;;11.52;2.40;;;4.90;99.90;;;;;;20774356;28;20049;-43
2022/04/11 04:54:27;;;;;;;4.18;2.03;;;4.80;99.90;;;;;;20774180;28;20041;-43
2022/04/11 05:04:28;;;;;;;5.90;2.53;;;4.80;99.90;;;;;;20789761;28;20042;-43
2022/04/11 05:14:29;;;;;;;5.15;1.95;;;4.70;99.90;;;;;;20790170;28;20248;-43
2022/04/11 05:24:30;;;;;;;5.43;2.53;;;4.60;99.90;;;;;;20784280;28;20047;-43
2022/04/11 05:34:31;;;;;;;12.02;3.90;;;4.50;99.90;;;;;;20782771;28;20056;-43
2022/04/11 05:44:33;;;;;;;6.40;2.72;;;4.50;99.90;;;;;;20794922;28;20485;-43
2022/04/11 05:54:38;;;;;;;5.78;2.53;;;4.70;99.90;;;;;;20782902;28;20041;-43
2022/04/11 06:04:39;;;;;;;7.32;2.97;;;4.70;99.90;;;;;;20779113;28;20460;-43
2022/04/11 06:14:40;;;;;;;12.73;3.30;;;4.90;99.90;;;;;;20784303;28;20052;-43
2022/04/11 06:24:41;;;;;;;5.95;2.63;;;5.20;99.90;;;;;;20748654;28;20044;-43
2022/04/11 06:34:43;;;;;;;6.78;3.35;;;5.60;99.90;;;;;;20762382;28;20049;-43
2022/04/11 06:44:44;;;;;;;4.68;3.00;;;6.00;99.90;;;;;;20762368;28;20484;-43
2022/04/11 06:54:45;;;;;;;6.60;3.28;;;6.30;99.90;;;;;;20751139;28;20050;-43
2022/04/11 07:04:47;;;;;;;5.88;2.95;;;6.80;99.90;;;;;;20762441;28;20065;-43
2022/04/11 07:14:48;;;;;;;6.75;3.00;;;7.50;99.90;;;;;;20762442;28;20048;-43
2022/04/11 07:24:49;;;;;;;6.45;2.50;;;8.00;99.90;;;;;;20763470;28;20037;-43
2022/04/11 07:34:50;;;;;;;5.10;2.28;;;8.30;99.90;;;;;;20754439;28;20064;-43
2022/04/11 07:44:53;;;;;;;4.25;2.08;;;8.60;99.90;;;;;;20763063;28;20042;-43
2022/04/11 07:54:54;;;;;;;4.68;2.25;;;9.20;99.90;;;;;;20751613;28;20398;-43
2022/04/11 08:04:55;;;;;;;3.92;1.92;;;9.50;99.90;;;;;;20751316;28;20041;-44
2022/04/11 08:14:57;;;;;;;6.80;2.08;;;9.90;99.90;;;;;;20765453;28;20436;-43
2022/04/11 08:24:58;;;;;;;3.45;1.92;;;10.20;99.90;;;;;;20757421;28;20048;-43
2022/04/11 08:34:59;;;;;;;3.38;1.80;;;10.60;99.90;;;;;;20758563;28;20049;-43
2022/04/11 08:45:01;;;;;;;3.30;1.35;;;10.90;99.90;;;;;;20771851;28;20052;-43
2022/04/11 08:55:02;;;;;;;3.72;1.95;;;11.40;99.90;;;;;;20829574;28;20132;-44
2022/04/11 09:05:04;;;;;;;2.55;1.08;;;11.80;99.90;;;;;;20815623;28;20392;-43
2022/04/11 09:15:06;;;;;;;1.90;0.98;;;12.10;99.90;;;;;;20780089;28;20056;-43
2022/04/11 09:25:12;;;;;;;1.40;0.77;;;12.40;99.60;;;;;;20797055;28;20037;-43
2022/04/11 09:35:19;;;;;;;1.67;0.90;;;12.60;99.90;;;;;;20797025;28;20049;-44
2022/04/11 09:45:26;;;;;;;3.72;1.17;;;13.00;98.20;;;;;;20794050;28;20100;-43
2022/04/11 09:55:27;;;;;;;4.55;1.88;;;13.30;97.50;;;;;;20774902;28;20405;-43
2022/04/11 10:05:28;;;;;;;3.50;1.75;;;13.70;94.80;;;;;;20784729;28;20049;-44
2022/04/11 10:15:30;;;;;;;3.75;1.65;;;13.90;95.00;;;;;;20817940;28;20046;-44
2022/04/11 10:25:37;;;;;;;7.35;2.63;;;14.10;94.80;;;;;;20813173;28;20034;-44
2022/04/11 10:35:43;;;;;;;3.75;1.98;;;14.10;94.90;;;;;;20831905;28;20047;-44
2022/04/11 10:45:57;;;;;;;4.05;1.50;;;14.50;94.10;;;;;;20786414;28;20397;-44
2022/04/11 10:56:05;;;;;;;4.15;2.05;;;14.80;93.60;;;;;;20802488;28;20052;-44
2022/04/11 11:06:21;;;;;;;6.15;1.60;;;14.80;90.90;;;;;;20790654;28;20044;-44
2022/04/11 11:16:26;;;;;;;3.55;1.40;;;15.20;90.60;;;;;;20784807;28;20045;-45
2022/04/11 11:26:29;;;;;;;5.38;1.73;;;15.20;89.00;;;;;;20804385;28;20052;-46
2022/04/11 11:36:30;;;;;;;2.95;1.20;;;15.50;89.80;;;;;;20795511;28;20066;-44
2022/04/11 11:46:31;;;;;;;2.63;1.10;;;15.90;91.90;;;;;;20763428;28;20497;-44
2022/04/11 11:56:43;;;;;;;2.03;1.00;;;15.80;90.30;;;;;;20753915;28;20042;-44
2022/04/11 12:06:45;;;;;;;3.00;1.70;;;16.10;91.30;;;;;;20757221;28;20147;-44
2022/04/11 12:17:00;;;;;;;10.00;1.63;;;16.40;92.40;;;;;;20732076;28;20594;-44
2022/04/11 12:27:01;;;;;;;2.92;1.50;;;16.80;90.50;;;;;;20708522;28;20041;-44
2022/04/11 12:37:05;;;;;;;2.28;1.25;;;16.70;88.70;;;;;;20740156;28;20049;-45
2022/04/11 12:47:07;;;;;;;3.25;1.38;;;17.10;88.50;;;;;;20778747;28;20077;-44
2022/04/11 12:57:10;;;;;;;1.95;0.98;;;17.50;88.30;;;;;;20774272;28;20476;-44
2022/04/11 13:07:11;;;;;;;2.08;0.90;;;17.10;89.70;;;;;;20774681;28;20046;-44
2022/04/11 13:27:34;;;;;;;3.05;1.25;;;17.90;87.80;;;;;;20788928;28;20049;-45
2022/04/11 13:37:38;;;;;;;2.75;1.33;;;17.90;89.50;;;;;;20727002;28;20442;-45
2022/04/11 13:47:39;;;;;;;3.75;1.38;;;17.60;87.30;;;;;;20714342;28;20046;-44
2022/04/11 13:57:40;;;;;;;1.80;1.00;;;17.10;84.20;;;;;;20711701;28;20057;-45
2022/04/11 14:07:42;;;;;;;2.25;0.80;;;17.30;85.20;;;;;;20726604;28;20046;-45
2022/04/11 14:17:43;;;;;;;2.05;1.27;;;16.90;86.20;;;;;;20747050;28;20146;-44
2022/04/11 14:27:44;;;;;;;3.13;1.50;;;16.60;88.10;;;;;;20742829;28;21086;-45
2022/04/11 14:37:46;;;;;;;4.32;1.75;;;16.80;88.40;;;;;;20795398;28;20121;-46
2022/04/11 14:47:47;;;;;;;3.00;1.23;;;16.80;85.10;;;;;;20818603;28;20136;-45
2022/04/11 14:57:50;;;;;;;2.08;1.20;;;16.70;85.10;;;;;;20818571;28;20049;-45
2022/04/11 15:07:51;;;;;;;4.32;2.05;;;16.40;88.80;;;;;;20815907;28;20157;-45
2022/04/11 15:17:54;;;;;;;1.98;1.15;;;16.30;87.20;;;;;;20817644;28;20059;-44
2022/04/11 15:27:55;;;;;;;3.97;2.20;;;16.30;88.20;;;;;;20767940;28;20056;-45
2022/04/11 15:37:56;;;;;;;4.07;1.58;;;16.20;86.90;;;;;;20753292;28;20045;-45
2022/04/11 15:47:57;;;;;;;3.58;1.45;;;16.10;86.90;;;;;;20769345;28;20064;-45
2022/04/11 15:57:59;;;;;;;3.28;1.38;;;16.10;88.70;;;;;;20780716;28;20612;-46
2022/04/11 16:08:00;;;;;;;4.00;1.48;;;16.10;88.80;;;;;;20761111;28;20034;-45
2022/04/11 16:18:02;;;;;;;6.70;2.45;;;16.10;86.50;;;;;;20782466;28;20590;-46
2022/04/11 16:28:03;;;;;;;3.50;1.42;;;15.90;86.30;;;;;;20783066;28;20131;-45
2022/04/11 16:38:04;;;;;;;4.88;1.40;;;15.80;86.80;;;;;;20777660;28;20425;-45
2022/04/11 16:48:06;;;;;;;1.85;0.88;;;15.70;86.20;;;;;;20784753;28;20029;-45
2022/04/11 16:58:07;;;;;;;1.83;1.13;;;15.60;85.90;;;;;;20793322;28;20034;-45
2022/04/11 17:08:09;;;;;;;3.75;1.30;;;15.60;84.60;;;;;;20795103;28;20041;-45
2022/04/11 17:28:30;;;;;;;3.13;1.60;;;15.30;86.60;;;;;;20812627;28;20040;-46
2022/04/11 17:38:31;;;;;;;2.72;1.00;;;15.10;86.90;;;;;;20799934;28;20055;-46
2022/04/11 17:48:34;;;;;;;2.13;1.05;;;15.00;86.20;;;;;;20809019;28;20045;-46
2022/04/11 17:58:35;;;;;;;3.33;1.25;;;15.00;87.50;;;;;;20795668;28;20076;-45
2022/04/11 18:08:36;;;;;;;2.60;1.33;;;14.90;87.60;;;;;;20783965;28;20397;-46
2022/04/11 18:18:37;;;;;;;5.10;1.48;;;14.70;90.00;;;;;;20783074;28;20181;-46
2022/04/11 18:39:00;;;;;;;3.50;1.52;;;14.30;90.90;;;;;;20777180;28;20330;-45
2022/04/11 18:49:01;;;;;;;5.15;1.63;;;14.10;91.30;;;;;;20774385;28;20049;-45
2022/04/11 18:59:04;;;;;;;3.60;1.80;;;13.80;91.40;;;;;;20783500;28;20041;-45
2022/04/11 19:09:05;;;;;;;3.70;1.65;;;13.80;91.70;;;;;;20769238;28;20092;-45
2022/04/11 19:19:07;;;;;;;4.28;1.60;;;13.60;92.50;;;;;;20770124;28;20041;-45
2022/04/11 19:29:08;;;;;;;3.92;1.83;;;13.50;93.00;;;;;;20768899;28;20045;-45
2022/04/11 19:39:09;;;;;;;5.03;1.92;;;13.30;93.70;;;;;;20768930;28;20049;-45
2022/04/11 19:59:30;;;;;;;4.47;1.90;;;13.00;94.30;;;;;;20769450;28;20405;-45
2022/04/11 20:09:32;;;;;;;4.03;1.80;;;12.80;94.20;;;;;;20761893;28;20049;-45
2022/04/11 20:19:33;;;;;;;3.80;1.77;;;12.70;94.00;;;;;;20765496;28;20551;-46
2022/04/11 20:29:34;;;;;;;4.30;1.63;;;12.60;93.50;;;;;;20765372;28;20072;-45
2022/04/11 20:39:35;;;;;;;3.47;1.90;;;12.50;94.10;;;;;;20738348;28;20057;-45
2022/04/11 20:49:36;;;;;;;3.08;1.10;;;12.40;94.10;;;;;;20764575;28;20512;-45
2022/04/11 20:59:37;;;;;;;4.18;1.50;;;12.40;93.90;;;;;;20750259;28;20043;-45
2022/04/11 21:09:39;;;;;;;5.28;2.30;;;12.40;94.10;;;;;;20756608;28;20045;-45
2022/04/11 21:19:40;;;;;;;4.38;2.30;;;12.20;94.20;;;;;;20752505;28;20061;-46
2022/04/11 21:29:41;;;;;;;5.10;1.70;;;12.30;94.20;;;;;;20743797;28;20046;-45
2022/04/11 21:39:46;;;;;;;5.65;1.90;;;12.20;94.50;;;;;;20736231;28;20047;-45
2022/04/11 21:49:47;;;;;;;4.03;1.90;;;12.10;95.20;;;;;;20750792;28;20313;-45
2022/04/11 21:59:51;;;;;;;5.03;1.58;;;12.00;94.90;;;;;;20759128;28;20072;-45
2022/04/11 22:09:52;;;;;;;4.25;1.67;;;12.00;95.50;;;;;;20756954;28;20052;-45
2022/04/11 22:19:53;;;;;;;3.10;1.33;;;11.70;95.90;;;;;;20748428;28;20046;-45
2022/04/11 22:29:54;;;;;;;5.00;1.40;;;11.60;96.00;;;;;;20763978;28;20132;-45
2022/04/11 22:39:55;;;;;;;4.00;2.10;;;11.50;96.50;;;;;;20721086;28;20046;-46
2022/04/11 22:49:57;;;;;;;4.65;1.30;;;11.40;96.90;;;;;;20713146;28;20202;-46
2022/04/11 22:59:59;;;;;;;4.55;1.75;;;11.30;97.50;;;;;;20757475;28;20595;-45
2022/04/11 23:10:00;;;;;;;2.67;1.42;;;11.20;97.70;;;;;;20751522;28;20045;-45
2022/04/11 23:20:02;;;;;;;3.47;1.90;;;11.10;98.00;;;;;;20758218;28;20033;-45
2022/04/11 23:30:04;;;;;;;3.67;1.77;;;10.90;98.10;;;;;;20757156;28;20053;-45
2022/04/11 23:50:28;;;;;;;3.75;1.73;;;10.60;99.30;;;;;;20708839;28;20064;-45
